Time;durP1;ratioP1;P1;durP2;ratioP2;P2;SDS_P1;SDS_P2;PMS_P1;PMS_P2;Temp;Humidity;BMP_temperature;BMP_pressure;BME280_temperature;BME280_humidity;BME280_pressure;Samples;Min_cycle;Max_cycle;Signal;HPM_P1;HPM_P2
2022/06/22 00:02:22;;;;;;;9.35;6.72;;;;;;;22.23;93.93;94142.03;5073990;28;20195;-66
2022/06/22 00:04:53;;;;;;;9.38;7.30;;;;;;;22.24;94.14;94131.44;5073772;28;20205;-62
2022/06/22 00:07:27;;;;;;;9.90;6.95;;;;;;;22.27;91.93;94143.19;5073764;28;20169;-62
2022/06/22 00:10:13;;;;;;;9.95;6.93;;;;;;;22.23;92.34;94145.41;5073789;28;20658;-62
2022/06/22 00:12:39;;;;;;;11.35;6.75;;;;;;;22.30;91.84;94137.59;5072958;28;20582;-62
2022/06/22 00:15:37;;;;;;;13.02;6.88;;;;;;;22.25;91.92;94140.00;5073695;28;20213;-65
2022/06/22 00:18:20;;;;;;;13.00;7.28;;;;;;;22.24;91.05;94149.56;5073542;28;20678;-65
2022/06/22 00:20:55;;;;;;;11.60;7.72;;;;;;;22.23;90.79;94154.97;5073695;28;20209;-65
2022/06/22 00:23:33;;;;;;;9.70;7.50;;;;;;;22.26;91.21;94149.38;5073421;28;20169;-65
2022/06/22 00:26:08;;;;;;;9.80;7.97;;;;;;;22.18;90.44;94144.47;5074028;28;20302;-62
2022/06/22 00:28:51;;;;;;;8.93;6.80;;;;;;;22.09;91.64;94137.97;5073276;28;20718;-63
2022/06/22 00:31:47;;;;;;;10.40;7.70;;;;;;;22.11;91.22;94144.53;5073826;28;20193;-65
2022/06/22 00:34:16;;;;;;;10.88;7.90;;;;;;;22.08;91.66;94131.22;5073222;28;20177;-62
2022/06/22 00:37:17;;;;;;;12.73;7.38;;;;;;;22.06;91.43;94138.41;5073332;28;20714;-62
2022/06/22 00:39:44;;;;;;;9.85;7.40;;;;;;;21.97;91.18;94129.31;5073071;28;20294;-60
2022/06/22 00:42:15;;;;;;;10.50;8.20;;;;;;;22.04;90.95;94140.41;5072885;28;20271;-62
2022/06/22 00:44:52;;;;;;;10.52;7.57;;;;;;;22.03;90.81;94133.63;5073077;28;20205;-62
2022/06/22 00:47:23;;;;;;;9.43;8.35;;;;;;;22.03;91.07;94139.63;5071622;28;20553;-62
2022/06/22 00:49:49;;;;;;;13.45;8.20;;;;;;;22.04;91.16;94137.81;5072824;28;20224;-62
2022/06/22 00:52:25;;;;;;;8.18;7.32;;;;;;;22.04;91.52;94140.41;5072813;28;20565;-64
2022/06/22 00:54:50;;;;;;;12.23;7.78;;;;;;;22.07;91.43;94142.56;5073119;28;20205;-60
2022/06/22 00:57:25;;;;;;;12.43;7.82;;;;;;;22.05;91.42;94142.78;5072700;28;20582;-64
2022/06/22 01:00:14;;;;;;;14.60;8.23;;;;;;;22.08;91.75;94144.16;5072775;28;20221;-62
2022/06/22 01:02:47;;;;;;;11.57;7.78;;;;;;;22.12;91.76;94137.56;5072508;28;20177;-64
2022/06/22 01:05:18;;;;;;;10.65;7.93;;;;;;;22.15;90.88;94144.88;5072886;28;20213;-62
2022/06/22 01:07:50;;;;;;;11.05;7.70;;;;;;;22.15;91.75;94143.09;5072741;28;20172;-60
2022/06/22 01:10:30;;;;;;;9.32;8.05;;;;;;;22.24;91.19;94146.22;5070937;28;20319;-63
2022/06/22 01:13:37;;;;;;;10.20;8.48;;;;;;;22.16;91.27;94143.91;5072447;28;20164;-64
2022/06/22 01:16:09;;;;;;;14.43;7.95;;;;;;;22.19;91.45;94131.31;5071894;28;20221;-59
2022/06/22 01:18:52;;;;;;;8.23;7.30;;;;;;;22.21;91.60;94129.28;5071091;28;20177;-63
2022/06/22 01:21:29;;;;;;;11.50;7.82;;;;;;;22.22;91.67;94130.88;5072842;28;20201;-62
2022/06/22 01:24:25;;;;;;;11.18;7.68;;;;;;;22.18;92.08;94131.53;5072333;28;20302;-63
2022/06/22 01:27:27;;;;;;;12.18;8.07;;;;;;;22.21;92.36;94131.88;5072463;28;20215;-62
2022/06/22 01:29:58;;;;;;;10.65;7.97;;;;;;;22.26;91.60;94133.84;5072163;28;20220;-66
2022/06/22 01:32:30;;;;;;;10.95;8.60;;;;;;;22.24;92.18;94120.31;5072389;28;20260;-65
2022/06/22 01:35:01;;;;;;;10.77;8.18;;;;;;;22.27;91.77;94130.22;5070941;28;20200;-63
2022/06/22 01:37:30;;;;;;;14.13;7.90;;;;;;;22.23;91.49;94123.91;5072306;28;20161;-64
2022/06/22 01:40:18;;;;;;;9.63;7.63;;;;;;;22.33;91.76;94124.19;5071949;28;20212;-61
2022/06/22 01:43:03;;;;;;;11.63;8.25;;;;;;;22.34;91.84;94125.78;5071839;28;20176;-61
2022/06/22 01:45:40;;;;;;;12.23;8.65;;;;;;;22.32;91.61;94122.63;5071844;28;20216;-65
2022/06/22 01:48:14;;;;;;;10.82;8.30;;;;;;;22.33;91.76;94119.81;5072072;28;20165;-63
2022/06/22 01:51:11;;;;;;;9.68;7.68;;;;;;;22.42;91.54;94121.09;5072070;28;20215;-63
2022/06/22 01:53:41;;;;;;;10.98;7.90;;;;;;;22.67;90.87;94126.25;5055265;28;20659;-62
2022/06/22 01:56:29;;;;;;;11.88;7.95;;;;;;;22.63;91.08;94117.34;5070653;28;20208;-61
2022/06/22 01:59:28;;;;;;;17.00;8.85;;;;;;;22.64;91.97;94113.75;5072106;28;20164;-65
2022/06/22 02:02:11;;;;;;;11.65;10.20;;;;;;;22.52;92.25;94116.22;5072084;28;20319;-65
2022/06/22 02:05:02;;;;;;;11.90;8.00;;;;;;;22.49;91.36;94124.44;5071837;28;20204;-62
2022/06/22 02:07:45;;;;;;;10.10;8.73;;;;;;;22.38;91.94;94114.75;5072100;28;20191;-59
2022/06/22 02:10:32;;;;;;;14.52;10.07;;;;;;;22.32;92.57;94112.25;5071987;28;20242;-63
2022/06/22 02:12:57;;;;;;;13.73;9.27;;;;;;;22.23;94.11;94108.34;5071795;28;20169;-65
2022/06/22 02:15:38;;;;;;;10.63;8.60;;;;;;;22.21;93.46;94107.78;5072144;28;20213;-61
2022/06/22 02:18:16;;;;;;;12.63;8.05;;;;;;;22.27;94.00;94105.13;5070264;28;20960;-59
2022/06/22 02:20:42;;;;;;;15.40;8.27;;;;;;;22.28;93.53;94104.09;5072041;28;20192;-61
2022/06/22 02:23:32;;;;;;;12.65;8.40;;;;;;;22.22;93.96;94099.00;5071588;28;20169;-63
2022/06/22 02:26:26;;;;;;;11.82;8.70;;;;;;;22.22;95.04;94107.56;5070689;28;20698;-63
2022/06/22 02:28:51;;;;;;;10.70;8.63;;;;;;;22.24;93.72;94107.38;5056097;28;20193;-61
2022/06/22 02:31:20;;;;;;;10.40;9.13;;;;;;;22.27;94.56;94110.31;5070101;28;20740;-61
2022/06/22 02:33:50;;;;;;;12.90;10.77;;;;;;;22.18;94.51;94095.28;5071624;28;20169;-62
2022/06/22 02:36:16;;;;;;;12.95;8.98;;;;;;;22.18;95.03;94108.22;5071974;28;20213;-62
2022/06/22 02:38:44;;;;;;;11.13;9.13;;;;;;;22.28;94.78;94105.94;5075312;28;20268;-62
2022/06/22 02:46:40;;;;;;;13.38;9.40;;;;;;;21.96;96.43;94107.78;5076303;28;20234;-65
2022/06/22 02:49:17;;;;;;;11.27;9.48;;;;;;;21.98;97.13;94094.66;5074996;28;20215;-64
2022/06/22 02:51:46;;;;;;;17.30;9.88;;;;;;;21.96;96.93;94094.84;5074997;28;20164;-62
2022/06/22 02:54:25;;;;;;;20.13;11.15;;;;;;;22.03;96.28;94099.97;5073482;28;20180;-63
2022/06/22 02:57:03;;;;;;;11.38;9.07;;;;;;;22.08;96.46;94100.91;5073529;28;20631;-64
2022/06/22 02:59:30;;;;;;;10.98;8.98;;;;;;;22.15;96.31;94109.44;5075114;28;20211;-59
2022/06/22 03:01:56;;;;;;;16.55;8.90;;;;;;;22.16;96.50;94107.63;5074719;28;20566;-62
2022/06/22 03:04:21;;;;;;;16.85;8.95;;;;;;;22.08;97.28;94100.16;5075251;28;20173;-60
2022/06/22 03:06:53;;;;;;;13.32;8.73;;;;;;;22.13;97.40;94108.84;5074992;28;20202;-65
2022/06/22 03:09:19;;;;;;;12.77;9.25;;;;;;;22.12;97.04;94115.03;5074521;28;20220;-63
2022/06/22 03:11:50;;;;;;;17.10;9.80;;;;;;;22.10;97.52;94124.03;5073292;28;20239;-62
2022/06/22 03:14:34;;;;;;;9.55;8.63;;;;;;;22.31;96.50;94118.44;5074363;28;20256;-64
2022/06/22 03:17:01;;;;;;;11.48;9.48;;;;;;;22.30;96.56;94115.03;5074645;28;20199;-66
2022/06/22 03:20:00;;;;;;;15.35;9.73;;;;;;;22.27;97.62;94114.69;5074295;28;20229;-65
2022/06/22 03:22:50;;;;;;;11.75;10.27;;;;;;;22.45;96.55;94110.31;5072953;28;20191;-64
2022/06/22 03:25:37;;;;;;;12.98;9.52;;;;;;;22.33;98.23;94114.63;5074708;28;20197;-62
2022/06/22 03:28:08;;;;;;;13.65;10.25;;;;;;;22.11;97.63;94107.47;5073412;28;20211;-62
2022/06/22 03:30:47;;;;;;;12.35;9.73;;;;;;;22.01;98.60;94112.34;5054812;28;20220;-64
2022/06/22 03:33:18;;;;;;;15.50;10.60;;;;;;;22.08;97.93;94105.31;5074509;28;20234;-63
2022/06/22 03:35:55;;;;;;;11.75;9.82;;;;;;;21.95;98.92;94100.25;5074668;28;20200;-62
2022/06/22 03:38:26;;;;;;;12.77;10.35;;;;;;;22.06;98.86;94108.09;5073374;28;20165;-61
2022/06/22 03:41:02;;;;;;;15.52;11.10;;;;;;;21.91;99.32;94105.06;5073899;28;20212;-62
2022/06/22 03:44:08;;;;;;;14.15;10.30;;;;;;;22.00;99.26;94110.78;5072946;28;20187;-60
2022/06/22 03:46:42;;;;;;;13.68;10.20;;;;;;;22.02;100.00;94113.94;5032005;28;20341;-61
2022/06/22 03:49:21;;;;;;;12.45;9.75;;;;;;;22.11;100.00;94120.41;5067479;28;20213;-62
2022/06/22 03:51:52;;;;;;;14.07;10.70;;;;;;;22.12;100.00;94124.59;5074101;28;20174;-64
2022/06/22 03:54:27;;;;;;;14.88;10.52;;;;;;;22.07;100.00;94114.88;5073864;28;20173;-64
2022/06/22 03:56:58;;;;;;;11.93;10.65;;;;;;;22.16;100.00;94120.59;5073904;28;20184;-65
2022/06/22 03:59:25;;;;;;;14.18;10.80;;;;;;;21.90;100.00;94113.06;5055266;28;20205;-65
2022/06/22 04:01:52;;;;;;;14.02;10.52;;;;;;;21.86;100.00;94129.97;5073704;28;20181;-65
2022/06/22 04:04:20;;;;;;;12.55;10.77;;;;;;;21.92;100.00;94135.13;5073487;28;20173;-66
2022/06/22 04:06:49;;;;;;;13.32;9.48;;;;;;;21.84;100.00;94139.75;5073795;28;20208;-60
2022/06/22 04:09:21;;;;;;;14.00;10.57;;;;;;;21.56;100.00;94119.44;5073708;28;20262;-64
2022/06/22 04:11:52;;;;;;;12.07;10.18;;;;;;;21.80;100.00;94141.94;5073436;28;20208;-65
2022/06/22 04:14:36;;;;;;;14.80;10.43;;;;;;;21.81;100.00;94143.56;5073687;28;20184;-65
2022/06/22 04:17:08;;;;;;;12.20;10.25;;;;;;;21.89;100.00;94132.16;5073497;28;20172;-65
2022/06/22 04:19:45;;;;;;;13.85;10.48;;;;;;;22.05;100.00;94140.19;5072209;28;20205;-61
2022/06/22 04:22:18;;;;;;;13.60;11.05;;;;;;;21.94;100.00;94130.50;5073573;28;20207;-65
2022/06/22 04:24:54;;;;;;;18.13;11.65;;;;;;;22.13;100.00;94115.81;5073584;28;20205;-63
2022/06/22 04:27:32;;;;;;;14.60;10.68;;;;;;;21.90;100.00;94107.88;5072132;28;20288;-62
2022/06/22 04:30:12;;;;;;;16.65;11.07;;;;;;;21.94;100.00;94114.22;5073099;28;20252;-61
2022/06/22 04:32:54;;;;;;;13.60;11.25;;;;;;;22.08;100.00;94126.03;5073416;28;20211;-60
2022/06/22 04:35:28;;;;;;;14.77;10.70;;;;;;;22.05;100.00;94127.25;5073208;28;20208;-62
2022/06/22 04:37:59;;;;;;;14.60;10.45;;;;;;;22.30;100.00;94127.22;5073019;28;20161;-62
2022/06/22 04:40:30;;;;;;;14.38;10.40;;;;;;;22.41;100.00;94136.88;5071531;28;20244;-63
2022/06/22 04:43:00;;;;;;;15.02;10.80;;;;;;;22.09;100.00;94117.25;5078711;22;20217;-59
2022/06/22 04:45:30;;;;;;;16.00;10.98;;;;;;;22.14;100.00;94135.53;5072893;28;20262;-62
2022/06/22 04:48:01;;;;;;;17.70;12.18;;;;;;;22.23;100.00;94129.88;5054997;28;20191;-61
2022/06/22 04:50:27;;;;;;;16.33;11.95;;;;;;;22.63;100.00;94145.84;5054859;28;20208;-65
2022/06/22 04:52:55;;;;;;;17.83;11.65;;;;;;;22.34;100.00;94138.75;5073426;28;20180;-62
2022/06/22 04:55:24;;;;;;;11.70;10.48;;;;;;;22.30;100.00;94145.34;5072727;28;20193;-61
2022/06/22 04:57:54;;;;;;;16.02;11.55;;;;;;;22.18;100.00;94147.84;5072956;28;20181;-64
2022/06/22 05:00:22;;;;;;;13.65;10.85;;;;;;;22.45;100.00;94149.19;5054805;28;20292;-63
2022/06/22 05:02:54;;;;;;;13.57;11.00;;;;;;;22.34;100.00;94144.69;5073068;28;20693;-63
2022/06/22 05:05:25;;;;;;;19.55;12.00;;;;;;;22.42;100.00;94152.19;5072968;28;20757;-62
2022/06/22 05:08:00;;;;;;;15.82;11.00;;;;;;;22.53;100.00;94155.88;5056433;28;20181;-63
2022/06/22 05:10:34;;;;;;;17.05;11.13;;;;;;;22.69;100.00;94163.13;5072477;28;20228;-63
2022/06/22 05:13:05;;;;;;;14.48;11.70;;;;;;;22.80;100.00;94170.19;5072926;28;20265;-63
2022/06/22 05:15:36;;;;;;;13.73;10.63;;;;;;;22.78;100.00;94174.81;5072418;28;20207;-63
2022/06/22 05:18:05;;;;;;;19.20;11.27;;;;;;;22.90;100.00;94167.09;5072743;28;20184;-63
2022/06/22 05:20:30;;;;;;;14.82;10.43;;;;;;;22.79;100.00;94176.38;5072249;28;20262;-63
2022/06/22 05:23:00;;;;;;;11.23;9.98;;;;;;;22.60;100.00;94156.66;5072348;28;20176;-63
2022/06/22 05:25:26;;;;;;;11.77;9.85;;;;;;;22.70;99.84;94185.44;5072153;28;20193;-60
2022/06/22 05:28:23;;;;;;;14.25;9.82;;;;;;;22.74;99.53;94172.84;5052268;28;20603;-62
2022/06/22 05:31:13;;;;;;;13.25;10.07;;;;;;;22.79;99.34;94170.38;5072385;28;20216;-63
2022/06/22 05:33:46;;;;;;;13.18;9.23;;;;;;;22.92;98.31;94172.84;5072176;28;20181;-59
2022/06/22 05:36:14;;;;;;;11.65;9.32;;;;;;;22.85;97.87;94169.53;5072137;28;20197;-60
2022/06/22 05:38:46;;;;;;;14.80;10.18;;;;;;;22.85;98.28;94159.16;5072160;28;20185;-61
2022/06/22 05:41:18;;;;;;;15.40;9.82;;;;;;;22.87;97.97;94155.34;5072287;28;20278;-64
2022/06/22 05:43:45;;;;;;;14.85;9.98;;;;;;;22.91;97.76;94153.09;5071953;28;20180;-60
2022/06/22 05:46:11;;;;;;;13.65;10.23;;;;;;;22.94;97.07;94157.88;5071868;28;20196;-59
2022/06/22 05:48:46;;;;;;;11.57;8.68;;;;;;;23.11;97.90;94151.06;5071912;28;20256;-61
2022/06/22 05:51:31;;;;;;;13.20;9.65;;;;;;;23.07;96.67;94174.06;5071930;28;20258;-60
2022/06/22 05:54:08;;;;;;;12.93;10.38;;;;;;;23.39;100.00;94153.16;5072265;28;20180;-64
2022/06/22 05:56:41;;;;;;;13.82;9.75;;;;;;;23.46;95.87;94179.78;5072058;28;20642;-64
2022/06/22 05:59:13;;;;;;;12.35;9.55;;;;;;;23.55;94.67;94187.06;5073379;28;20173;-61
2022/06/22 06:01:59;;;;;;;11.48;9.63;;;;;;;23.58;94.65;94191.00;5071920;28;20192;-61
2022/06/22 06:04:43;;;;;;;10.65;9.55;;;;;;;23.37;95.34;94171.53;5071669;28;20223;-61
2022/06/22 06:07:18;;;;;;;11.43;10.23;;;;;;;23.49;95.81;94171.56;5071538;28;20192;-61
2022/06/22 06:09:44;;;;;;;15.43;9.73;;;;;;;23.44;94.09;94182.59;5071712;28;20212;-61
2022/06/22 06:12:16;;;;;;;16.08;10.70;;;;;;;23.40;93.31;94183.25;5075690;28;20184;-60
2022/06/22 06:14:46;;;;;;;12.98;10.70;;;;;;;23.52;93.57;94187.50;5081314;22;20306;-60
2022/06/22 06:17:19;;;;;;;16.75;10.55;;;;;;;23.47;94.00;94168.41;5076167;28;20708;-60
2022/06/22 06:19:51;;;;;;;10.93;9.55;;;;;;;23.40;92.97;94193.63;5075959;28;20188;-62
2022/06/22 06:22:17;;;;;;;16.02;10.63;;;;;;;23.38;92.99;94190.47;5075861;28;20177;-59
2022/06/22 06:27:40;;;;;;;12.02;10.43;;;;;;;23.25;95.43;94166.25;5075643;28;20565;-61
2022/06/22 06:30:30;;;;;;;13.38;10.35;;;;;;;23.34;95.89;94166.78;5075507;28;20300;-59
2022/06/22 06:33:31;;;;;;;14.65;11.18;;;;;;;23.35;96.07;94169.13;5075379;28;20631;-59
2022/06/22 06:36:06;;;;;;;15.35;11.32;;;;;;;23.33;96.51;94149.63;5075498;28;20253;-59
2022/06/22 06:38:41;;;;;;;17.35;10.82;;;;;;;23.59;96.22;94171.84;5075434;28;20184;-60
2022/06/22 06:41:24;;;;;;;12.82;10.73;;;;;;;23.66;96.38;94164.72;5074072;28;20658;-58
2022/06/22 06:43:55;;;;;;;13.68;10.40;;;;;;;23.78;95.47;94170.75;5074186;28;20205;-63
2022/06/22 06:49:03;;;;;;;12.27;10.05;;;;;;;23.94;95.70;94162.31;5144292;22;20236;-60
2022/06/22 06:51:31;;;;;;;15.05;10.77;;;;;;;23.98;94.70;94166.03;5075148;28;20485;-62
2022/06/22 06:54:00;;;;;;;11.65;10.43;;;;;;;23.98;94.47;94164.25;5075173;28;20227;-62
2022/06/22 06:56:46;;;;;;;12.40;11.13;;;;;;;24.16;94.56;94168.59;5075151;28;20626;-62
2022/06/22 06:59:17;;;;;;;13.52;11.80;;;;;;;24.23;94.50;94171.88;5074534;28;20213;-61
2022/06/22 07:01:45;;;;;;;14.57;12.25;;;;;;;24.25;91.67;94190.63;5074747;28;20189;-60
2022/06/22 07:04:32;;;;;;;19.40;12.98;;;;;;;24.23;90.75;94184.88;5074508;28;20180;-62
2022/06/22 07:09:37;;;;;;;15.73;13.48;;;;;;;24.43;91.07;94179.34;5080083;22;20228;-60
2022/06/22 07:12:22;;;;;;;14.27;12.00;;;;;;;24.52;91.75;94165.00;5074437;28;20197;-61
2022/06/22 07:17:20;;;;;;;18.83;12.77;;;;;;;24.57;89.99;94173.69;5071298;28;20307;-62
2022/06/22 07:19:52;;;;;;;14.63;11.95;;;;;;;24.72;87.07;94205.25;5073774;28;20214;-62
2022/06/22 07:22:17;;;;;;;16.70;13.45;;;;;;;24.86;89.15;94170.19;5073164;28;20193;-61
2022/06/22 07:25:01;;;;;;;14.98;12.95;;;;;;;24.89;86.93;94202.75;5073658;28;20195;-61
2022/06/22 07:27:45;;;;;;;16.80;13.25;;;;;;;24.90;86.42;94202.53;5073522;28;20209;-61
2022/06/22 07:30:13;;;;;;;17.65;13.43;;;;;;;24.94;86.02;94203.66;5073438;28;20293;-61
2022/06/22 07:33:03;;;;;;;22.20;14.52;;;;;;;24.97;85.44;94218.78;5073359;28;20196;-63
2022/06/22 07:35:37;;;;;;;19.35;14.25;;;;;;;24.92;85.34;94205.69;5073290;28;20204;-60
2022/06/22 07:38:17;;;;;;;19.35;12.95;;;;;;;25.02;86.78;94186.91;5073209;28;20193;-61
2022/06/22 07:41:18;;;;;;;17.73;14.98;;;;;;;25.12;86.48;94191.50;5073461;28;20717;-61
2022/06/22 07:43:31;;;;;;;21.23;15.77;;;;;;;25.23;86.92;94172.50;5073384;28;20578;-61
2022/06/22 07:45:57;;;;;;;19.38;14.63;;;;;;;25.28;86.77;94182.97;5073567;28;20181;-61
2022/06/22 07:51:00;;;;;;;22.27;15.40;;;;;;;25.34;85.92;94195.06;5070647;28;20240;-63
2022/06/22 07:53:46;;;;;;;18.40;16.27;;;;;;;25.50;85.39;94194.38;5073872;28;20227;-63
2022/06/22 07:56:17;;;;;;;18.20;15.82;;;;;;;25.61;87.22;94177.91;5053625;28;20181;-62
2022/06/22 07:58:50;;;;;;;27.05;19.00;;;;;;;25.58;82.64;94246.88;5053684;28;20208;-61
2022/06/22 08:01:20;;;;;;;25.55;18.98;;;;;;;25.37;82.43;94238.88;5053558;28;20178;-63
2022/06/22 08:03:49;;;;;;;24.02;19.08;;;;;;;25.39;81.99;94252.44;5053503;28;20201;-62
2022/06/22 08:06:29;;;;;;;25.70;19.60;;;;;;;25.53;81.44;94240.78;5053649;28;20247;-63
2022/06/22 08:09:17;;;;;;;28.30;20.58;;;;;;;25.66;82.45;94227.47;5051698;28;20221;-62
2022/06/22 08:11:49;;;;;;;23.45;19.67;;;;;;;25.86;81.72;94238.25;5053414;28;20180;-62
2022/06/22 08:14:25;;;;;;;28.05;20.75;;;;;;;26.03;82.85;94213.03;5053621;28;20201;-62
2022/06/22 08:16:58;;;;;;;26.13;19.83;;;;;;;26.19;80.04;94246.19;5053628;28;20259;-63
2022/06/22 08:19:29;;;;;;;23.15;19.65;;;;;;;26.14;78.67;94273.97;5053866;28;20217;-60
2022/06/22 08:21:59;;;;;;;25.08;17.30;;;;;;;26.08;77.52;94275.69;5052068;28;20200;-61
2022/06/22 08:24:27;;;;;;;23.80;17.58;;;;;;;26.02;78.07;94255.75;5053555;28;20336;-61
2022/06/22 08:26:55;;;;;;;23.75;17.42;;;;;;;26.10;77.03;94273.63;5051815;28;20212;-62
2022/06/22 08:29:25;;;;;;;22.75;15.93;;;;;;;25.99;74.42;94295.31;5053257;28;20210;-61
2022/06/22 08:32:02;;;;;;;21.08;16.67;;;;;;;26.09;74.49;94298.13;5053461;28;20186;-59
2022/06/22 08:34:38;;;;;;;27.45;16.80;;;;;;;26.02;75.38;94273.97;5052109;28;20271;-61
2022/06/22 08:37:17;;;;;;;20.08;15.25;;;;;;;26.03;75.01;94278.19;5053030;28;20180;-59
2022/06/22 08:39:52;;;;;;;23.98;14.32;;;;;;;26.00;74.43;94286.44;5053276;28;20201;-62
2022/06/22 08:42:35;;;;;;;19.77;13.48;;;;;;;25.96;70.59;94363.50;5053003;28;20165;-65
2022/06/22 08:45:28;;;;;;;18.83;13.57;;;;;;;25.93;71.88;94319.69;5053560;28;20212;-60
2022/06/22 08:47:59;;;;;;;17.38;11.98;;;;;;;25.90;72.16;94301.91;5053183;28;20195;-59
2022/06/22 08:50:51;;;;;;;17.50;13.02;;;;;;;25.89;71.74;94313.34;5052928;28;20256;-59
2022/06/22 08:53:47;;;;;;;16.50;12.85;;;;;;;26.02;73.16;94279.19;5025247;28;20181;-59
2022/06/22 08:56:38;;;;;;;15.88;11.98;;;;;;;26.14;72.47;94293.00;5052981;28;20204;-63
2022/06/22 08:59:26;;;;;;;15.50;12.85;;;;;;;26.05;72.52;94281.34;5052790;28;20213;-60
2022/06/22 09:02:06;;;;;;;22.77;12.10;;;;;;;26.02;72.26;94273.97;5052505;28;20166;-59
2022/06/22 09:04:34;;;;;;;17.95;11.05;;;;;;;26.16;68.73;94345.69;5052915;28;20209;-60
2022/06/22 09:07:09;;;;;;;14.65;10.93;;;;;;;26.19;69.05;94326.19;5052569;28;20178;-60
2022/06/22 09:10:02;;;;;;;18.90;12.52;;;;;;;26.34;70.10;94284.75;5050947;28;20212;-59
2022/06/22 09:13:05;;;;;;;15.80;12.40;;;;;;;26.45;68.71;94321.19;5052252;28;20174;-62
2022/06/22 09:15:58;;;;;;;12.50;9.57;;;;;;;26.59;67.54;94340.72;5052370;28;20213;-60
2022/06/22 09:18:55;;;;;;;14.00;10.45;;;;;;;26.63;68.81;94313.13;5052208;28;20592;-59
2022/06/22 09:21:44;;;;;;;15.18;10.82;;;;;;;26.68;66.91;94330.69;5076119;22;20248;-63
2022/06/22 09:24:22;;;;;;;19.45;10.48;;;;;;;26.64;67.90;94321.75;5072069;28;20197;-63
2022/06/22 09:27:20;;;;;;;16.35;10.35;;;;;;;26.58;69.06;94273.16;5072185;28;20173;-63
2022/06/22 09:30:07;;;;;;;14.27;10.00;;;;;;;26.67;67.79;94303.00;5072035;28;20559;-60
2022/06/22 09:33:09;;;;;;;13.00;9.65;;;;;;;26.77;67.39;94291.97;5072063;28;20169;-63
2022/06/22 09:35:54;;;;;;;13.30;9.88;;;;;;;26.80;68.46;94254.97;5072241;28;20204;-59
2022/06/22 09:38:40;;;;;;;13.65;10.10;;;;;;;26.88;68.16;94270.22;5071902;28;20674;-62
2022/06/22 09:41:30;;;;;;;14.43;10.15;;;;;;;26.94;64.69;94350.97;5071805;28;20192;-62
2022/06/22 09:44:23;;;;;;;13.85;9.45;;;;;;;26.99;64.44;94329.34;5071900;28;20258;-63
2022/06/22 09:47:07;;;;;;;14.98;9.25;;;;;;;27.12;64.36;94316.78;5071855;28;20198;-63
2022/06/22 09:49:57;;;;;;;15.27;8.95;;;;;;;27.08;63.08;94343.59;5071856;28;20307;-63
2022/06/22 09:53:01;;;;;;;12.77;8.10;;;;;;;26.83;64.00;94322.31;5071706;28;20172;-64
2022/06/22 09:58:57;;;;;;;11.73;8.63;;;;;;;26.88;64.07;94317.19;5071735;28;20183;-60
2022/06/22 10:01:34;;;;;;;13.38;8.80;;;;;;;26.96;63.67;94328.03;5072104;28;20181;-60
2022/06/22 10:04:37;;;;;;;13.07;7.85;;;;;;;26.91;63.03;94337.59;5071839;28;20204;-63
2022/06/22 10:07:08;;;;;;;12.02;7.85;;;;;;;27.08;61.73;94370.50;5071727;28;20184;-63
2022/06/22 10:09:42;;;;;;;17.67;8.00;;;;;;;27.15;61.90;94367.75;5070083;28;20264;-60
2022/06/22 10:12:17;;;;;;;13.80;7.55;;;;;;;27.40;62.87;94347.22;5071564;28;20169;-60
2022/06/22 10:14:54;;;;;;;12.57;8.15;;;;;;;27.64;63.47;94339.97;5071608;28;20725;-60
2022/06/22 10:18:01;;;;;;;16.02;8.90;;;;;;;27.81;65.40;94278.00;5071693;28;20181;-60
2022/06/22 10:20:38;;;;;;;11.00;8.98;;;;;;;27.81;64.85;94299.69;5071219;28;20212;-63
2022/06/22 10:23:13;;;;;;;14.63;8.57;;;;;;;27.54;62.72;94360.72;5071624;28;20173;-62
2022/06/22 10:26:01;;;;;;;16.15;8.15;;;;;;;27.76;64.57;94312.69;5071913;28;20212;-61
2022/06/22 10:28:45;;;;;;;12.00;8.02;;;;;;;27.89;64.27;94333.25;5071219;28;20173;-59
2022/06/22 10:31:22;;;;;;;9.98;7.78;;;;;;;27.71;63.52;94349.22;5071320;28;20208;-61
2022/06/22 10:33:57;;;;;;;12.00;7.82;;;;;;;27.52;63.22;94347.13;5071209;28;20226;-64
2022/06/22 10:37:10;;;;;;;14.57;8.27;;;;;;;27.59;64.02;94326.84;5071163;28;20191;-63
2022/06/22 10:45:08;;;;;;;14.00;8.75;;;;;;;27.63;66.05;94279.09;5028985;28;20221;-62
2022/06/22 10:46:06;;;;;;;13.77;8.15;;;;;;;27.72;64.88;94302.97;5071467;28;20212;-63
2022/06/22 10:48:49;;;;;;;14.35;8.98;;;;;;;27.85;63.32;94332.16;5070026;28;20546;-58
2022/06/22 10:51:28;;;;;;;16.25;9.43;;;;;;;27.87;63.44;94324.84;5071512;28;20295;-59
2022/06/22 10:54:32;;;;;;;14.50;8.38;;;;;;;28.25;63.42;94323.97;5069603;28;20224;-62
2022/06/22 10:57:12;;;;;;;12.25;8.25;;;;;;;28.17;62.19;94361.81;5072353;28;20646;-61
2022/06/22 10:59:41;;;;;;;10.57;9.20;;;;;;;28.14;61.09;94379.81;5075097;28;20209;-59
2022/06/22 11:02:43;;;;;;;13.73;8.95;;;;;;;28.40;62.76;94325.97;5074965;28;20845;-59
2022/06/22 11:05:15;;;;;;;10.30;8.10;;;;;;;28.48;60.65;94367.38;5074412;28;20205;-62
2022/06/22 11:07:50;;;;;;;17.52;8.63;;;;;;;28.48;60.69;94377.84;5074644;28;20169;-60
2022/06/22 11:10:30;;;;;;;14.13;7.85;;;;;;;28.38;61.28;94334.06;5074794;28;20236;-59
2022/06/22 11:13:22;;;;;;;10.63;8.00;;;;;;;28.60;61.64;94332.19;5074516;28;20220;-59
2022/06/22 11:15:54;;;;;;;14.70;9.52;;;;;;;28.57;61.08;94355.44;5074880;28;20203;-61
2022/06/22 11:18:32;;;;;;;11.27;8.48;;;;;;;28.54;61.22;94348.88;5074429;28;20188;-62
2022/06/22 11:21:20;;;;;;;13.57;9.25;;;;;;;28.54;61.40;94345.44;5074445;28;20207;-61
2022/06/22 11:36:08;;;;;;;11.30;8.55;;;;;;;27.40;62.74;94293.19;5353868;22;20233;-64
2022/06/22 11:38:46;;;;;;;12.95;8.80;;;;;;;27.35;65.08;94242.72;5054150;28;20598;-62
2022/06/22 11:41:32;;;;;;;16.83;9.45;;;;;;;27.14;68.54;94191.25;5054165;28;20209;-62
2022/06/22 11:44:03;;;;;;;12.95;8.98;;;;;;;26.97;68.82;94174.84;5035915;28;20280;-63
2022/06/22 11:46:36;;;;;;;12.38;8.88;;;;;;;26.89;67.70;94193.53;5054172;28;20204;-62
2022/06/22 11:49:13;;;;;;;12.40;9.60;;;;;;;26.93;66.67;94220.72;5053952;28;20231;-63
2022/06/22 11:52:06;;;;;;;13.30;9.48;;;;;;;26.91;65.81;94259.31;5060863;22;20649;-59
2022/06/22 11:57:34;;;;;;;12.65;9.05;;;;;;;27.14;66.06;94241.63;5012913;28;20226;-63
2022/06/22 12:00:21;;;;;;;13.25;9.93;;;;;;;27.15;66.17;94234.59;5017246;28;20292;-64
2022/06/22 12:03:11;;;;;;;13.43;9.52;;;;;;;27.24;65.53;94251.41;5033706;28;20244;-59
2022/06/22 12:06:01;;;;;;;12.57;9.93;;;;;;;27.30;64.84;94268.72;5033924;28;20202;-61
2022/06/22 12:08:53;;;;;;;14.68;10.07;;;;;;;27.58;63.13;94320.81;5032516;28;20261;-61
2022/06/22 12:11:37;;;;;;;12.50;10.25;;;;;;;27.24;62.90;94321.91;5002322;28;20675;-60
2022/06/22 12:17:41;;;;;;;14.00;9.88;;;;;;;27.89;62.67;94322.00;5033628;28;20231;-61
2022/06/22 12:20:41;;;;;;;17.75;10.07;;;;;;;28.39;62.28;94327.78;5033740;28;20563;-61
2022/06/22 12:23:49;;;;;;;15.95;10.27;;;;;;;28.52;62.72;94318.75;4982421;28;20183;-63
2022/06/22 12:26:39;;;;;;;14.18;9.10;;;;;;;28.74;57.99;94403.25;5033918;28;20210;-62
2022/06/22 12:29:38;;;;;;;13.02;8.90;;;;;;;28.44;57.68;94415.97;5033427;28;20174;-63
2022/06/22 12:32:27;;;;;;;17.85;9.05;;;;;;;28.60;58.20;94381.13;5033291;28;20221;-62
2022/06/22 12:35:04;;;;;;;13.10;9.40;;;;;;;28.75;57.88;94389.09;5033441;28;20205;-61
2022/06/22 12:37:39;;;;;;;17.33;10.07;;;;;;;28.76;56.97;94415.03;5033231;28;20171;-61
2022/06/22 12:40:18;;;;;;;13.20;9.30;;;;;;;28.97;57.16;94418.63;5033317;28;20567;-59
2022/06/22 12:42:43;;;;;;;16.75;10.55;;;;;;;28.78;57.90;94397.25;5033152;28;20171;-63
2022/06/22 12:45:24;;;;;;;17.70;10.38;;;;;;;28.57;59.08;94365.91;5033145;28;20549;-63
2022/06/22 12:47:58;;;;;;;13.38;9.98;;;;;;;28.60;59.31;94366.22;5033244;28;20178;-63
2022/06/22 12:50:47;;;;;;;13.07;9.88;;;;;;;28.83;58.84;94363.28;5033020;28;20221;-60
2022/06/22 12:53:22;;;;;;;15.02;10.23;;;;;;;28.98;59.88;94341.66;5032824;28;20178;-59
2022/06/22 12:56:30;;;;;;;16.80;10.40;;;;;;;28.79;61.09;94309.84;5033104;28;20584;-59
2022/06/22 12:58:58;;;;;;;16.77;11.18;;;;;;;28.87;61.50;94291.06;5016401;28;20220;-62